Wetterstation Vordersexau
Wetterdaten: Woche 23.03.15 - 29.03.15 (KW13)
Datum Zeit Temp. A. Feuchte A. Luftdruck Regen Wind Richtung Taupunkt Windchill Windben
23.03.2015 00:00 4,8 C 76 % 1016,2 hPa 0,0 l/m 0,0 km/h N-NO 0,9 C 4,8 C 0,0 km/h
23.03.2015 01:00 4,5 C 78 % 1016,0 hPa 0,0 l/m 0,0 km/h O-SO 1,0 C 4,5 C 0,0 km/h
23.03.2015 02:00 4,4 C 79 % 1015,6 hPa 0,0 l/m 0,0 km/h O-SO 1,1 C 4,4 C 0,0 km/h
23.03.2015 03:00 5,3 C 78 % 1015,6 hPa 0,0 l/m 0,0 km/h SO 1,8 C 5,3 C 0,0 km/h
23.03.2015 04:00 5,0 C 78 % 1015,3 hPa 0,0 l/m 0,0 km/h SO 1,5 C 5,0 C 0,0 km/h
23.03.2015 05:00 4,8 C 80 % 1015,4 hPa 0,0 l/m 0,0 km/h SO 1,6 C 4,8 C 0,0 km/h
23.03.2015 06:00 4,9 C 80 % 1015,5 hPa 0,0 l/m 0,0 km/h SO 1,7 C 4,9 C 0,0 km/h
23.03.2015 07:00 6,3 C 80 % 1015,4 hPa 0,0 l/m 0,0 km/h SO 3,1 C 6,3 C 0,0 km/h
23.03.2015 08:00 8,5 C 73 % 1015,0 hPa 0,0 l/m 8,4 km/h O-SO 3,9 C 7,0 C 4,7 km/h
23.03.2015 09:00 10,7 C 64 % 1014,9 hPa 0,0 l/m 0,0 km/h O-NO 4,2 C 10,7 C 0,0 km/h
23.03.2015 10:00 17,1 C 50 % 1014,4 hPa 0,0 l/m 0,0 km/h W 6,6 C 17,1 C 0,0 km/h
23.03.2015 11:00 17,5 C 46 % 1013,6 hPa 0,0 l/m 9,1 km/h S-SW 5,8 C 16,2 C 5,0 km/h
23.03.2015 12:00 16,8 C 47 % 1012,9 hPa 0,0 l/m 0,0 km/h W-NW 5,4 C 16,8 C 0,0 km/h
23.03.2015 13:00 18,4 C 43 % 1012,0 hPa 0,0 l/m 0,0 km/h SO 5,6 C 18,4 C 0,0 km/h
23.03.2015 14:00 20,2 C 40 % 1011,2 hPa 0,0 l/m 0,0 km/h W 6,2 C 20,2 C 0,0 km/h
23.03.2015 15:00 23,0 C 34 % 1010,4 hPa 0,0 l/m 0,0 km/h N-NW 6,3 C 23,0 C 0,0 km/h
23.03.2015 16:00 22,5 C 33 % 1009,8 hPa 0,0 l/m 2,6 km/h W-NW 5,4 C 22,5 C 1,4 km/h
23.03.2015 17:00 17,5 C 40 % 1009,2 hPa 0,0 l/m 0,0 km/h W-NW 3,8 C 17,5 C 0,0 km/h
23.03.2015 18:00 9,9 C 53 % 1009,5 hPa 0,0 l/m 0,0 km/h W-NW 0,8 C 9,9 C 0,0 km/h
23.03.2015 19:00 6,5 C 67 % 1009,6 hPa 0,0 l/m 0,0 km/h W-NW 0,8 C 6,5 C 0,0 km/h
23.03.2015 20:00 5,1 C 73 % 1009,7 hPa 0,0 l/m 0,0 km/h W-NW 0,7 C 5,1 C 0,0 km/h
23.03.2015 21:00 3,9 C 76 % 1009,4 hPa 0,0 l/m 0,0 km/h O-SO 0,1 C 3,9 C 0,0 km/h
23.03.2015 22:00 3,3 C 79 % 1009,2 hPa 0,0 l/m 0,0 km/h O-SO 0,0 C 3,3 C 0,0 km/h
23.03.2015 23:00 2,1 C 81 % 1008,9 hPa 0,0 l/m 0,0 km/h O-SO -0,8 C 2,1 C 0,0 km/h
24.03.2015 00:00 1,3 C 83 % 1008,5 hPa 0,0 l/m 0,0 km/h O-NO -1,3 C 1,3 C 0,0 km/h
24.03.2015 01:00 1,0 C 84 % 1008,4 hPa 0,0 l/m 0,0 km/h O-NO -1,4 C 1,0 C 0,0 km/h
24.03.2015 02:00 0,8 C 85 % 1008,1 hPa 0,0 l/m 0,0 km/h O-NO -1,4 C 0,8 C 0,0 km/h
24.03.2015 03:00 0,1 C 85 % 1007,8 hPa 0,0 l/m 0,0 km/h O-NO -2,1 C 0,1 C 0,0 km/h
24.03.2015 04:00 -0,2 C 86 % 1007,5 hPa 0,0 l/m 0,0 km/h O-NO -2,3 C -0,2 C 0,0 km/h
24.03.2015 05:00 -0,4 C 86 % 1007,4 hPa 0,0 l/m 0,0 km/h O-NO -2,4 C -0,4 C 0,0 km/h
24.03.2015 06:00 0,4 C 86 % 1007,4 hPa 0,0 l/m 0,0 km/h O -1,7 C 0,4 C 0,0 km/h
24.03.2015 07:00 3,1 C 84 % 1007,3 hPa 0,0 l/m 0,0 km/h NO 0,7 C 3,1 C 0,0 km/h
24.03.2015 08:00 10,8 C 77 % 1006,9 hPa 0,0 l/m 0,0 km/h NW 6,9 C 10,8 C 0,0 km/h
24.03.2015 09:00 13,6 C 65 % 1007,2 hPa 0,0 l/m 0,0 km/h S 7,1 C 13,6 C 0,0 km/h
24.03.2015 10:00 17,8 C 53 % 1006,5 hPa 0,0 l/m 0,0 km/h W 8,1 C 17,8 C 0,0 km/h
24.03.2015 11:00 20,9 C 44 % 1005,8 hPa 0,0 l/m 0,0 km/h N 8,2 C 20,9 C 0,0 km/h
24.03.2015 12:00 21,3 C 41 % 1005,0 hPa 0,0 l/m 0,0 km/h W 7,5 C 21,3 C 0,0 km/h
24.03.2015 13:00 19,9 C 43 % 1004,5 hPa 0,0 l/m 7,1 km/h SW 6,9 C 19,6 C 4,0 km/h
24.03.2015 14:00 23,6 C 35 % 1003,9 hPa 0,0 l/m 4,5 km/h W 7,2 C 23,6 C 2,5 km/h
24.03.2015 15:00 25,9 C 31 % 1003,4 hPa 0,0 l/m 3,9 km/h N-NO 7,5 C 25,9 C 2,2 km/h
24.03.2015 16:00 25,3 C 29 % 1003,0 hPa 0,0 l/m 0,0 km/h N-NO 6,0 C 25,3 C 0,0 km/h
24.03.2015 17:00 22,4 C 33 % 1002,7 hPa 0,0 l/m 0,0 km/h N-NO 5,3 C 22,4 C 0,0 km/h
24.03.2015 18:00 12,1 C 53 % 1002,9 hPa 0,0 l/m 0,0 km/h SO 2,8 C 12,1 C 0,0 km/h
24.03.2015 19:00 9,8 C 65 % 1002,8 hPa 0,0 l/m 5,8 km/h O-SO 3,5 C 9,8 C 3,2 km/h
24.03.2015 20:00 8,6 C 69 % 1002,7 hPa 0,0 l/m 0,0 km/h SO 3,2 C 8,6 C 0,0 km/h
24.03.2015 21:00 7,9 C 72 % 1002,3 hPa 0,0 l/m 0,0 km/h SO 3,2 C 7,9 C 0,0 km/h
24.03.2015 22:00 8,1 C 74 % 1001,9 hPa 0,0 l/m 9,7 km/h SO 3,8 C 5,7 C 5,4 km/h
24.03.2015 23:00 7,3 C 75 % 1002,0 hPa 0,0 l/m 0,0 km/h O-SO 3,2 C 7,3 C 0,0 km/h
25.03.2015 00:00 6,3 C 78 % 1002,2 hPa 0,0 l/m 0,0 km/h O 2,8 C 6,3 C 0,0 km/h
25.03.2015 01:00 4,3 C 80 % 1001,9 hPa 0,0 l/m 0,0 km/h O-NO 1,2 C 4,3 C 0,0 km/h
25.03.2015 02:00 3,6 C 82 % 1001,9 hPa 0,0 l/m 0,0 km/h O-SO 0,8 C 3,6 C 0,0 km/h
25.03.2015 03:00 4,4 C 83 % 1001,6 hPa 0,0 l/m 0,0 km/h O-SO 1,8 C 4,4 C 0,0 km/h
25.03.2015 04:00 3,4 C 83 % 1001,7 hPa 0,0 l/m 0,0 km/h SO 0,8 C 3,4 C 0,0 km/h
25.03.2015 05:00 3,9 C 85 % 1001,6 hPa 0,0 l/m 0,0 km/h SO 1,6 C 3,9 C 0,0 km/h
25.03.2015 06:00 4,8 C 85 % 1001,5 hPa 0,0 l/m 0,0 km/h O-NO 2,5 C 4,8 C 0,0 km/h
25.03.2015 07:00 5,9 C 84 % 1001,6 hPa 0,0 l/m 0,0 km/h SO 3,4 C 5,9 C 0,0 km/h
25.03.2015 08:00 12,2 C 74 % 1001,9 hPa 0,0 l/m 0,0 km/h N-NW 7,7 C 12,2 C 0,0 km/h
25.03.2015 09:00 14,5 C 61 % 1001,7 hPa 0,0 l/m 0,0 km/h W-NW 7,1 C 14,5 C 0,0 km/h
25.03.2015 10:00 16,8 C 56 % 1001,8 hPa 0,0 l/m 0,0 km/h W-NW 8,0 C 16,8 C 0,0 km/h
25.03.2015 11:00 18,8 C 50 % 1001,4 hPa 0,0 l/m 14,9 km/h NW 8,2 C 15,8 C 8,3 km/h
25.03.2015 12:00 16,2 C 54 % 1001,3 hPa 0,0 l/m 0,0 km/h NW 6,9 C 16,2 C 0,0 km/h
25.03.2015 13:00 14,3 C 62 % 1001,4 hPa 0,0 l/m 0,0 km/h N-NO 7,1 C 14,3 C 0,0 km/h
25.03.2015 14:00 11,9 C 68 % 1001,7 hPa 0,0 l/m 0,0 km/h N-NO 6,2 C 11,9 C 0,0 km/h
25.03.2015 15:00 10,2 C 71 % 1002,6 hPa 0,0 l/m 0,0 km/h N-NO 5,2 C 10,2 C 0,0 km/h
25.03.2015 16:00 9,2 C 73 % 1003,0 hPa 0,0 l/m 11,7 km/h W-NW 4,6 C 5,8 C 6,5 km/h
25.03.2015 17:00 8,3 C 76 % 1003,4 hPa 0,0 l/m 3,2 km/h N-NO 4,3 C 8,3 C 1,8 km/h
25.03.2015 18:00 7,6 C 77 % 1003,8 hPa 0,0 l/m 1,3 km/h N-NW 3,8 C 7,6 C 0,7 km/h
25.03.2015 19:00 6,1 C 83 % 1004,5 hPa 0,4 l/m 0,0 km/h N 3,4 C 6,1 C 0,0 km/h
25.03.2015 20:00 5,8 C 85 % 1004,9 hPa 0,4 l/m 0,0 km/h N-NW 3,5 C 5,8 C 0,0 km/h
25.03.2015 21:00 5,6 C 85 % 1004,9 hPa 0,8 l/m 0,0 km/h NW 3,3 C 5,6 C 0,0 km/h
25.03.2015 22:00 5,3 C 85 % 1005,4 hPa 0,0 l/m 0,0 km/h NW 3,0 C 5,3 C 0,0 km/h
25.03.2015 23:00 5,0 C 85 % 1005,5 hPa 0,4 l/m 0,0 km/h NW 2,7 C 5,0 C 0,0 km/h
26.03.2015 00:00 4,9 C 85 % 1005,7 hPa 0,0 l/m 0,0 km/h NW 2,6 C 4,9 C 0,0 km/h
26.03.2015 01:00 5,0 C 86 % 1005,9 hPa 0,0 l/m 0,0 km/h NW 2,9 C 5,0 C 0,0 km/h
26.03.2015 02:00 5,0 C 86 % 1006,3 hPa 0,0 l/m 0,0 km/h NW 2,9 C 5,0 C 0,0 km/h
26.03.2015 03:00 5,1 C 86 % 1006,9 hPa 0,0 l/m 0,0 km/h NW 3,0 C 5,1 C 0,0 km/h
26.03.2015 04:00 5,1 C 86 % 1007,1 hPa 0,0 l/m 0,0 km/h W 3,0 C 5,1 C 0,0 km/h
26.03.2015 05:00 4,9 C 85 % 1007,4 hPa 0,0 l/m 0,0 km/h W 2,6 C 4,9 C 0,0 km/h
26.03.2015 06:00 4,9 C 85 % 1008,1 hPa 0,0 l/m 0,0 km/h W 2,6 C 4,9 C 0,0 km/h
26.03.2015 07:00 5,1 C 85 % 1008,5 hPa 0,4 l/m 0,0 km/h W 2,8 C 5,1 C 0,0 km/h
26.03.2015 08:00 5,6 C 84 % 1008,8 hPa 0,0 l/m 12,3 km/h W 3,1 C 1,3 C 6,8 km/h
26.03.2015 09:00 6,0 C 85 % 1009,2 hPa 0,0 l/m 0,0 km/h W 3,7 C 6,0 C 0,0 km/h
26.03.2015 10:00 6,3 C 86 % 1009,1 hPa 0,0 l/m 0,0 km/h W-SW 4,1 C 6,3 C 0,0 km/h
26.03.2015 11:00 7,3 C 85 % 1008,8 hPa 0,0 l/m 0,0 km/h S-SW 4,9 C 7,3 C 0,0 km/h
26.03.2015 12:00 7,1 C 85 % 1008,7 hPa 0,0 l/m 0,0 km/h W 4,8 C 7,1 C 0,0 km/h
26.03.2015 13:00 8,9 C 80 % 1008,2 hPa 0,0 l/m 0,0 km/h W 5,6 C 8,9 C 0,0 km/h
26.03.2015 14:00 8,4 C 79 % 1008,2 hPa 0,0 l/m 8,4 km/h W-SW 5,0 C 6,9 C 4,7 km/h
26.03.2015 15:00 9,3 C 74 % 1008,2 hPa 0,0 l/m 12,3 km/h SW 4,9 C 5,6 C 6,8 km/h
26.03.2015 16:00 8,2 C 75 % 1008,2 hPa 0,0 l/m 9,7 km/h W 4,0 C 5,8 C 5,4 km/h
26.03.2015 17:00 7,8 C 74 % 1008,4 hPa 0,0 l/m 20,7 km/h S 3,5 C 0,2 C 11,5 km/h
26.03.2015 18:00 7,3 C 74 % 1008,6 hPa 0,0 l/m 0,0 km/h W 3,0 C 7,3 C 0,0 km/h
26.03.2015 19:00 6,1 C 78 % 1009,8 hPa 0,0 l/m 9,7 km/h S-SO 2,6 C 3,5 C 5,4 km/h
26.03.2015 20:00 5,1 C 83 % 1010,2 hPa 0,0 l/m 5,8 km/h S-SW 2,5 C 5,1 C 3,2 km/h
26.03.2015 21:00 6,1 C 81 % 1010,5 hPa 0,0 l/m 9,7 km/h SW 3,1 C 3,5 C 5,4 km/h
26.03.2015 22:00 6,0 C 80 % 1010,8 hPa 0,0 l/m 25,3 km/h S-SW 2,8 C -3,7 C 14,0 km/h
26.03.2015 23:00 4,9 C 84 % 1011,4 hPa 0,4 l/m 23,3 km/h W 2,4 C -4,5 C 13,0 km/h
27.03.2015 00:00 5,5 C 83 % 1011,9 hPa 0,0 l/m 11,0 km/h SW 2,8 C 2,0 C 6,1 km/h
27.03.2015 01:00 5,6 C 83 % 1012,4 hPa 0,0 l/m 5,8 km/h S-SW 2,9 C 5,6 C 3,2 km/h
27.03.2015 02:00 5,6 C 83 % 1012,3 hPa 0,0 l/m 5,8 km/h W-SW 2,9 C 5,6 C 3,2 km/h
27.03.2015 03:00 5,7 C 83 % 1012,8 hPa 0,0 l/m 0,0 km/h W-NW 3,0 C 5,7 C 0,0 km/h
27.03.2015 04:00 5,3 C 85 % 1013,6 hPa 0,0 l/m 6,5 km/h S 3,0 C 5,2 C 3,6 km/h
27.03.2015 05:00 5,0 C 85 % 1014,0 hPa 0,0 l/m 0,0 km/h N 2,7 C 5,0 C 0,0 km/h
27.03.2015 06:00 4,5 C 85 % 1015,4 hPa 0,0 l/m 0,0 km/h N 2,2 C 4,5 C 0,0 km/h
27.03.2015 07:00 5,5 C 86 % 1016,2 hPa 0,0 l/m 0,0 km/h W-NW 3,3 C 5,5 C 0,0 km/h
27.03.2015 08:00 11,3 C 83 % 1016,8 hPa 0,0 l/m 0,0 km/h W 8,5 C 11,3 C 0,0 km/h
27.03.2015 09:00 9,8 C 76 % 1017,5 hPa 0,0 l/m 23,3 km/h NW 5,8 C 2,0 C 13,0 km/h
27.03.2015 10:00 10,2 C 69 % 1018,1 hPa 0,0 l/m 1,3 km/h SW 4,8 C 10,2 C 0,7 km/h
27.03.2015 11:00 14,5 C 58 % 1018,0 hPa 0,0 l/m 8,4 km/h N 6,3 C 13,4 C 4,7 km/h
27.03.2015 12:00 14,4 C 52 % 1017,8 hPa 0,0 l/m 0,0 km/h N-NW 4,7 C 14,4 C 0,0 km/h
27.03.2015 13:00 13,5 C 48 % 1017,8 hPa 0,0 l/m 0,0 km/h W-NW 2,7 C 13,5 C 0,0 km/h
27.03.2015 14:00 16,8 C 39 % 1018,1 hPa 0,0 l/m 27,9 km/h NW 2,8 C 10,5 C 15,5 km/h
27.03.2015 15:00 14,8 C 43 % 1018,3 hPa 0,0 l/m 3,9 km/h N-NW 2,3 C 14,8 C 2,2 km/h
27.03.2015 16:00 12,8 C 46 % 1018,5 hPa 0,0 l/m 0,0 km/h N-NO 1,5 C 12,8 C 0,0 km/h
27.03.2015 17:00 16,2 C 40 % 1019,7 hPa 0,0 l/m 5,2 km/h N-NW 2,6 C 16,2 C 2,9 km/h
27.03.2015 18:00 8,9 C 50 % 1020,3 hPa 0,0 l/m 0,0 km/h N-NW -0,9 C 8,9 C 0,0 km/h
27.03.2015 19:00 4,9 C 65 % 1021,0 hPa 0,0 l/m 0,0 km/h O-NO -1,1 C 4,9 C 0,0 km/h
27.03.2015 20:00 4,2 C 71 % 1021,6 hPa 0,0 l/m 0,0 km/h O-SO -0,6 C 4,2 C 0,0 km/h
27.03.2015 21:00 3,3 C 75 % 1022,3 hPa 0,0 l/m 0,0 km/h O-SO -0,7 C 3,3 C 0,0 km/h
27.03.2015 22:00 2,4 C 78 % 1022,4 hPa 0,0 l/m 0,0 km/h O-SO -1,0 C 2,4 C 0,0 km/h
27.03.2015 23:00 1,4 C 80 % 1022,7 hPa 0,0 l/m 0,0 km/h O-SO -1,7 C 1,4 C 0,0 km/h
28.03.2015 00:00 0,8 C 82 % 1022,5 hPa 0,0 l/m 0,0 km/h O -1,9 C 0,8 C 0,0 km/h
28.03.2015 01:00 0,5 C 84 % 1022,5 hPa 0,0 l/m 0,0 km/h O -1,9 C 0,5 C 0,0 km/h
28.03.2015 02:00 -0,1 C 84 % 1022,6 hPa 0,0 l/m 0,0 km/h O-SO -2,5 C -0,1 C 0,0 km/h
28.03.2015 03:00 0,1 C 85 % 1022,3 hPa 0,0 l/m 0,0 km/h O-SO -2,1 C 0,1 C 0,0 km/h
28.03.2015 04:00 0,7 C 85 % 1022,2 hPa 0,0 l/m 0,0 km/h O-SO -1,5 C 0,7 C 0,0 km/h
28.03.2015 05:00 -0,7 C 85 % 1022,1 hPa 0,0 l/m 0,0 km/h O-NO -2,9 C -0,7 C 0,0 km/h
28.03.2015 06:00 0,1 C 86 % 1022,2 hPa 0,0 l/m 0,0 km/h O-SO -2,0 C 0,1 C 0,0 km/h
28.03.2015 07:00 3,3 C 86 % 1021,8 hPa 0,0 l/m 0,0 km/h SO 1,2 C 3,3 C 0,0 km/h
28.03.2015 08:00 9,8 C 71 % 1021,3 hPa 0,0 l/m 0,0 km/h W 4,8 C 9,8 C 0,0 km/h
28.03.2015 09:00 15,6 C 52 % 1020,9 hPa 0,0 l/m 0,0 km/h W 5,8 C 15,6 C 0,0 km/h
28.03.2015 10:00 17,8 C 44 % 1020,2 hPa 0,0 l/m 0,0 km/h S 5,4 C 17,8 C 0,0 km/h
28.03.2015 11:00 17,6 C 42 % 1019,4 hPa 0,0 l/m 9,1 km/h W-NW 4,5 C 16,4 C 5,0 km/h
28.03.2015 12:00 16,6 C 43 % 1018,5 hPa 0,0 l/m 12,3 km/h NW 4,0 C 14,0 C 6,8 km/h
28.03.2015 13:00 16,4 C 42 % 1017,4 hPa 0,0 l/m 24,0 km/h SW 3,5 C 10,7 C 13,3 km/h
28.03.2015 14:00 13,6 C 46 % 1016,7 hPa 0,0 l/m 20,1 km/h W-SW 2,2 C 7,9 C 11,2 km/h
28.03.2015 15:00 10,6 C 57 % 1017,1 hPa 0,0 l/m 14,3 km/h S 2,4 C 6,2 C 7,9 km/h
28.03.2015 16:00 10,8 C 66 % 1016,8 hPa 0,0 l/m 10,4 km/h SW 4,7 C 8,3 C 5,8 km/h
28.03.2015 17:00 9,8 C 69 % 1017,0 hPa 0,0 l/m 12,3 km/h S-SW 4,4 C 6,1 C 6,8 km/h
28.03.2015 18:00 9,2 C 73 % 1016,7 hPa 0,0 l/m 14,3 km/h S-SW 4,6 C 4,5 C 7,9 km/h
28.03.2015 19:00 9,2 C 73 % 1016,7 hPa 0,0 l/m 14,3 km/h W-SW 4,6 C 4,5 C 7,9 km/h
28.03.2015 20:00 9,2 C 77 % 1016,8 hPa 0,0 l/m 5,8 km/h SW 5,4 C 9,2 C 3,2 km/h
28.03.2015 21:00 9,3 C 80 % 1017,2 hPa 0,0 l/m 15,6 km/h W-SW 6,0 C 4,0 C 8,6 km/h
28.03.2015 22:00 9,6 C 81 % 1016,2 hPa 0,0 l/m 18,8 km/h S-SW 6,5 C 3,2 C 10,4 km/h
28.03.2015 23:00 9,6 C 82 % 1015,5 hPa 0,0 l/m 14,9 km/h W 6,7 C 4,7 C 8,3 km/h
29.03.2015 00:00 9,9 C 83 % 1015,6 hPa 0,0 l/m 15,6 km/h S 7,2 C 4,8 C 8,6 km/h
29.03.2015 01:00 9,4 C 83 % 1015,0 hPa 0,0 l/m 0,0 km/h W-SW 6,7 C 9,4 C 0,0 km/h
29.03.2015 02:00 10,7 C 82 % 1014,7 hPa 0,0 l/m 31,1 km/h W-SW 7,8 C 1,4 C 17,3 km/h
29.03.2015 03:00 10,8 C 83 % 1014,5 hPa 0,0 l/m 11,7 km/h SW 8,0 C 7,6 C 6,5 km/h
29.03.2015 04:00 10,8 C 79 % 1013,3 hPa 0,0 l/m 37,6 km/h W 7,3 C 0,4 C 20,9 km/h
29.03.2015 05:00 10,7 C 77 % 1013,1 hPa 0,0 l/m 16,8 km/h W-SW 6,8 C 5,3 C 9,4 km/h
29.03.2015 06:00 10,5 C 79 % 1012,3 hPa 0,0 l/m 14,3 km/h SW 7,0 C 6,0 C 7,9 km/h
29.03.2015 07:00 10,4 C 80 % 1012,4 hPa 0,0 l/m 24,6 km/h W 7,1 C 2,5 C 13,7 km/h
29.03.2015 08:00 10,5 C 80 % 1012,1 hPa 0,0 l/m 10,4 km/h W-SW 7,2 C 7,9 C 5,8 km/h
29.03.2015 09:00 10,9 C 79 % 1011,6 hPa 0,0 l/m 23,3 km/h SW 7,4 C 3,5 C 13,0 km/h
29.03.2015 10:00 10,5 C 80 % 1010,9 hPa 0,0 l/m 22,7 km/h SW 7,2 C 3,1 C 12,6 km/h
29.03.2015 11:00 9,8 C 83 % 1010,4 hPa 0,0 l/m 22,7 km/h W-SW 7,1 C 2,2 C 12,6 km/h
29.03.2015 12:00 10,4 C 81 % 1009,7 hPa 0,4 l/m 17,5 km/h SW 7,3 C 4,7 C 9,7 km/h
29.03.2015 13:00 9,9 C 81 % 1009,4 hPa 0,0 l/m 17,5 km/h W 6,8 C 4,0 C 9,7 km/h
29.03.2015 14:00 10,3 C 81 % 1008,9 hPa 0,0 l/m 22,7 km/h W 7,2 C 2,9 C 12,6 km/h
29.03.2015 15:00 10,5 C 80 % 1008,0 hPa 0,0 l/m 61,6 km/h SW 7,2 C -2,4 C 34,2 km/h
29.03.2015 16:00 11,1 C 79 % 1007,1 hPa 0,0 l/m 22,7 km/h SW 7,6 C 3,9 C 12,6 km/h
29.03.2015 17:00 11,6 C 78 % 1006,4 hPa 0,0 l/m 25,3 km/h S 7,9 C 3,9 C 14,0 km/h
29.03.2015 18:00 11,8 C 77 % 1005,7 hPa 0,0 l/m 25,3 km/h W 7,9 C 4,2 C 14,0 km/h
29.03.2015 19:00 11,8 C 78 % 1004,9 hPa 0,0 l/m 33,0 km/h W-NW 8,1 C 2,6 C 18,4 km/h
29.03.2015 20:00 10,9 C 83 % 1004,3 hPa 0,0 l/m 24,6 km/h SW 8,1 C 3,2 C 13,7 km/h
29.03.2015 21:00 10,3 C 85 % 1004,2 hPa 0,4 l/m 18,8 km/h W-NW 7,9 C 4,1 C 10,4 km/h
29.03.2015 22:00 10,0 C 85 % 1003,9 hPa 0,4 l/m 33,0 km/h SW 7,6 C 0,1 C 18,4 km/h
29.03.2015 23:00 10,1 C 85 % 1003,4 hPa 0,4 l/m 16,2 km/h W-SW 7,7 C 4,8 C 9,0 km/h
Min-Datum _ 28.03.15 24.03.15 25.03.15 - 23.03.15 - 28.03.15 26.03.15 23.03.15
_ Min-Zeit 05:51 16:52 12:51 - 00:52 - 05:51 23:51 00:52
Minimum _ -0,7 C 29 % 1001,3 hPa - 0,0 km/h - -2,9 C -4,5 C 0,0 km/h
Max-Datum _ 24.03.15 24.03.15 27.03.15 25.03.15 29.03.15 - 27.03.15 24.03.15 29.03.15
_ Max-Zeit 15:52 04:52 23:51 21:51 15:51 - 08:51 15:52 15:51
Maximum _ 25,9 C 86 % 1022,7 hPa 0,8 l/m 61,6 km/h
SW
- 8,5 C 25,9 C 34,2 km/h
SW
Durchschnitt _ 9,0 C 72 % 1010,8 hPa #4,6 l/m 6,3 km/h W 3,7 C 7,3 C 3,5 km/h
www.sexauwetter.de